Time;durP1;ratioP1;P1;durP2;ratioP2;P2;SDS_P1;SDS_P2;PMS_P1;PMS_P2;Temp;Humidity;BMP_temperature;BMP_pressure;BME280_temperature;BME280_humidity;BME280_pressure;Samples;Min_cycle;Max_cycle;Signal;HPM_P1;HPM_P2
2023/10/07 00:01:04;;;;;;;3.30;2.33;;;18.40;66.20;;;;;;5006326;28;20823;-51
2023/10/07 00:03:32;;;;;;;4.67;2.50;;;18.40;66.10;;;;;;5008549;28;21019;-51
2023/10/07 00:06:01;;;;;;;3.97;2.97;;;18.40;66.10;;;;;;5005285;28;20834;-51
2023/10/07 00:08:34;;;;;;;5.60;2.40;;;18.40;66.20;;;;;;5005706;28;20480;-52
2023/10/07 00:11:11;;;;;;;2.93;2.60;;;18.40;66.20;;;;;;5006095;28;20433;-51
2023/10/07 00:13:42;;;;;;;5.43;2.57;;;18.40;66.20;;;;;;5010462;28;20859;-50
2023/10/07 00:16:14;;;;;;;2.83;2.00;;;18.40;66.20;;;;;;5009359;28;21062;-52
2023/10/07 00:18:43;;;;;;;2.57;2.23;;;18.40;66.30;;;;;;5009697;28;20572;-52
2023/10/07 00:21:15;;;;;;;3.80;2.50;;;18.40;66.20;;;;;;5006966;28;20516;-51
2023/10/07 00:23:44;;;;;;;3.67;2.27;;;18.40;66.30;;;;;;5005571;28;20472;-52
2023/10/07 00:26:13;;;;;;;2.80;2.00;;;18.40;66.20;;;;;;5013260;28;20806;-52
2023/10/07 00:28:59;;;;;;;4.00;2.57;;;18.40;66.20;;;;;;5001431;28;20473;-52
2023/10/07 00:31:32;;;;;;;3.47;2.07;;;18.40;66.20;;;;;;5016036;28;20439;-53
2023/10/07 00:34:11;;;;;;;3.70;2.70;;;18.40;66.20;;;;;;5008685;28;20555;-52
2023/10/07 00:36:47;;;;;;;3.83;2.37;;;18.40;66.10;;;;;;5007304;28;20447;-50
2023/10/07 00:39:21;;;;;;;2.33;1.90;;;18.40;66.20;;;;;;4995706;28;20460;-52
2023/10/07 00:41:58;;;;;;;2.87;2.30;;;18.40;66.20;;;;;;5009805;28;20475;-51
2023/10/07 00:44:32;;;;;;;3.70;2.20;;;18.40;66.30;;;;;;5005787;28;20487;-52
2023/10/07 00:47:12;;;;;;;2.90;2.17;;;18.40;66.30;;;;;;5004640;28;20526;-51
2023/10/07 00:49:50;;;;;;;2.80;2.03;;;18.40;66.30;;;;;;5011612;28;20547;-51
2023/10/07 00:52:27;;;;;;;3.20;1.93;;;18.40;66.40;;;;;;5008858;28;20561;-52
2023/10/07 00:55:08;;;;;;;2.90;2.00;;;18.40;66.30;;;;;;4998257;28;20814;-50
2023/10/07 00:57:37;;;;;;;2.53;1.80;;;18.40;66.30;;;;;;5008195;28;20433;-52
2023/10/07 01:00:41;;;;;;;2.87;2.37;;;18.40;66.30;;;;;;5006925;28;20908;-52
2023/10/07 01:03:17;;;;;;;4.03;2.73;;;18.40;66.30;;;;;;5012501;28;20456;-50
2023/10/07 01:05:55;;;;;;;3.50;1.97;;;18.40;66.30;;;;;;5007024;28;20479;-52
2023/10/07 01:08:27;;;;;;;2.70;2.20;;;18.40;66.30;;;;;;5006933;28;20467;-50
2023/10/07 01:11:06;;;;;;;6.43;2.10;;;18.30;66.30;;;;;;5003074;28;20420;-51
2023/10/07 01:13:36;;;;;;;3.87;2.23;;;18.40;66.40;;;;;;5005996;28;20475;-52
2023/10/07 01:16:07;;;;;;;4.00;2.57;;;18.30;66.20;;;;;;5005267;28;20834;-52
2023/10/07 01:18:39;;;;;;;2.57;1.90;;;18.30;66.30;;;;;;4988517;28;21064;-52
2023/10/07 01:21:11;;;;;;;4.43;2.67;;;18.30;66.30;;;;;;5005900;28;20832;-50
2023/10/07 01:23:44;;;;;;;3.27;2.10;;;18.30;66.30;;;;;;5008641;28;20475;-51
2023/10/07 01:26:21;;;;;;;2.77;2.10;;;18.30;66.40;;;;;;5002858;28;20440;-52
2023/10/07 01:28:56;;;;;;;2.93;2.40;;;18.30;66.40;;;;;;4990565;28;20492;-51
2023/10/07 01:31:29;;;;;;;3.33;2.53;;;18.30;66.30;;;;;;5007138;28;20476;-52
2023/10/07 01:34:01;;;;;;;3.13;2.27;;;18.30;66.40;;;;;;5007797;28;20475;-51
2023/10/07 01:36:30;;;;;;;3.80;2.43;;;18.30;66.40;;;;;;5005049;28;20477;-50
2023/10/07 01:39:01;;;;;;;3.30;2.17;;;18.30;66.40;;;;;;5007520;28;20512;-52
2023/10/07 01:41:31;;;;;;;2.57;2.17;;;18.30;66.30;;;;;;5000192;28;20445;-51
2023/10/07 01:43:59;;;;;;;3.33;2.00;;;18.30;66.40;;;;;;5004368;28;20489;-52
2023/10/07 01:46:31;;;;;;;3.60;2.60;;;18.30;66.40;;;;;;5006386;28;20899;-51
2023/10/07 01:49:01;;;;;;;3.20;2.53;;;18.30;66.40;;;;;;5006671;28;20551;-51
2023/10/07 01:51:30;;;;;;;4.17;2.77;;;18.30;66.40;;;;;;5005383;28;20519;-51
2023/10/07 01:54:03;;;;;;;3.03;2.43;;;18.30;66.40;;;;;;5008527;28;20469;-51
2023/10/07 01:56:32;;;;;;;2.90;2.13;;;18.30;66.50;;;;;;5024446;28;20437;-52
2023/10/07 01:59:17;;;;;;;3.77;2.47;;;18.30;66.50;;;;;;5009677;28;20827;-51
2023/10/07 02:01:51;;;;;;;3.80;2.47;;;18.30;66.50;;;;;;5009573;28;21408;-53
2023/10/07 02:04:26;;;;;;;4.20;2.50;;;18.30;66.50;;;;;;5007498;28;20591;-51
2023/10/07 02:06:56;;;;;;;3.07;2.37;;;18.30;66.50;;;;;;5002068;28;20906;-53
2023/10/07 02:09:28;;;;;;;3.57;2.90;;;18.20;66.40;;;;;;5009192;28;20520;-49
2023/10/07 02:11:57;;;;;;;3.67;2.83;;;18.20;66.60;;;;;;4998552;28;20830;-49
2023/10/07 02:14:27;;;;;;;3.83;2.80;;;18.20;66.60;;;;;;5007370;28;20511;-53
2023/10/07 02:16:57;;;;;;;3.40;2.40;;;18.30;66.70;;;;;;4991119;28;20756;-51
2023/10/07 02:19:29;;;;;;;3.77;2.90;;;18.20;66.60;;;;;;5006580;28;20571;-52
2023/10/07 02:21:59;;;;;;;4.07;2.80;;;18.20;66.70;;;;;;5005086;28;20446;-51
2023/10/07 02:24:30;;;;;;;2.93;2.50;;;18.30;66.80;;;;;;5008528;28;20990;-52
2023/10/07 02:27:01;;;;;;;6.20;3.50;;;18.20;66.70;;;;;;4998155;28;20803;-51
2023/10/07 02:29:29;;;;;;;3.23;2.83;;;18.20;66.80;;;;;;5013808;28;20503;-52
2023/10/07 02:32:07;;;;;;;5.40;2.87;;;18.20;66.80;;;;;;5013132;28;20433;-52
2023/10/07 02:34:51;;;;;;;3.80;2.80;;;18.20;67.00;;;;;;5006613;28;20475;-51
2023/10/07 02:37:25;;;;;;;3.77;2.70;;;18.20;67.00;;;;;;5004137;28;20815;-50
2023/10/07 02:39:56;;;;;;;6.60;3.33;;;18.20;66.90;;;;;;4991009;28;20493;-50
2023/10/07 02:42:28;;;;;;;5.60;2.90;;;18.20;67.00;;;;;;5007520;28;20437;-52
2023/10/07 02:45:11;;;;;;;4.40;2.30;;;18.20;67.10;;;;;;5012342;28;20564;-51
2023/10/07 02:47:39;;;;;;;3.37;2.40;;;18.20;67.10;;;;;;5011386;28;20532;-50
2023/10/07 02:50:08;;;;;;;4.03;2.80;;;18.20;67.10;;;;;;5006098;28;20903;-52
2023/10/07 02:52:39;;;;;;;4.13;2.63;;;18.20;67.20;;;;;;5004220;28;20444;-50
2023/10/07 02:55:28;;;;;;;4.80;2.93;;;18.20;67.20;;;;;;5006376;28;20459;-51
2023/10/07 02:57:56;;;;;;;3.80;2.20;;;18.20;67.30;;;;;;4996596;28;20887;-51
2023/10/07 03:00:35;;;;;;;7.10;2.47;;;18.20;67.30;;;;;;5004470;28;21025;-52
2023/10/07 03:03:31;;;;;;;3.63;2.87;;;18.20;67.30;;;;;;5004332;28;20949;-53
2023/10/07 03:06:06;;;;;;;2.90;2.37;;;18.20;67.40;;;;;;4992691;28;20452;-52
2023/10/07 03:08:47;;;;;;;4.37;2.30;;;18.20;67.30;;;;;;5004712;28;20467;-52
2023/10/07 03:11:22;;;;;;;3.83;2.80;;;18.20;67.40;;;;;;5012145;28;20428;-52
2023/10/07 03:13:56;;;;;;;4.40;2.63;;;18.20;67.30;;;;;;5005355;28;20904;-50
2023/10/07 03:16:28;;;;;;;7.50;3.00;;;18.20;67.40;;;;;;5008408;28;20456;-51
2023/10/07 03:19:06;;;;;;;3.27;2.20;;;18.20;67.30;;;;;;4995873;28;20532;-50
2023/10/07 03:27:10;;;;;;;3.70;2.80;;;18.20;67.60;;;;;;5003830;28;20445;-52
2023/10/07 03:29:57;;;;;;;3.63;2.30;;;18.20;67.50;;;;;;5003153;28;20474;-50
2023/10/07 03:32:32;;;;;;;5.13;3.30;;;18.20;67.80;;;;;;5005479;28;20447;-51
2023/10/07 03:35:00;;;;;;;3.70;2.90;;;18.20;67.80;;;;;;4996337;28;20494;-50
2023/10/07 03:37:30;;;;;;;5.20;2.77;;;18.20;67.60;;;;;;5001226;28;21124;-51
2023/10/07 03:40:18;;;;;;;3.90;3.13;;;18.20;67.80;;;;;;5008922;28;20989;-51
2023/10/07 03:42:47;;;;;;;4.13;2.40;;;18.20;67.70;;;;;;5007882;28;20436;-51
2023/10/07 03:45:15;;;;;;;3.53;2.90;;;18.20;67.70;;;;;;5004492;28;20988;-52
2023/10/07 03:47:46;;;;;;;2.33;1.87;;;18.20;67.90;;;;;;5003084;28;20441;-50
2023/10/07 03:53:02;;;;;;;4.70;2.53;;;18.20;67.90;;;;;;5000572;28;20535;-50
2023/10/07 03:55:31;;;;;;;4.00;2.90;;;18.10;67.80;;;;;;5004237;28;20469;-52
2023/10/07 03:58:01;;;;;;;8.27;2.80;;;18.10;67.90;;;;;;5009452;28;20434;-51
2023/10/07 04:00:33;;;;;;;4.13;2.63;;;18.10;67.80;;;;;;5002900;28;20475;-50
2023/10/07 04:03:08;;;;;;;5.10;3.30;;;18.10;67.90;;;;;;5009937;28;20441;-51
2023/10/07 04:05:42;;;;;;;3.30;2.80;;;18.10;67.90;;;;;;5006324;28;20477;-50
2023/10/07 04:08:10;;;;;;;5.23;3.10;;;18.10;67.90;;;;;;5003312;28;20444;-51
2023/10/07 04:10:43;;;;;;;3.23;2.57;;;18.10;68.00;;;;;;5005817;28;20508;-50
2023/10/07 04:13:21;;;;;;;3.57;2.20;;;18.10;67.90;;;;;;5006597;28;20437;-52
2023/10/07 04:15:53;;;;;;;5.00;2.87;;;18.10;68.00;;;;;;5000422;28;20492;-52
2023/10/07 04:18:34;;;;;;;3.20;2.87;;;18.10;68.20;;;;;;5008654;28;20460;-51
2023/10/07 04:21:03;;;;;;;3.37;2.40;;;18.10;68.20;;;;;;5001366;28;20662;-50
2023/10/07 04:23:31;;;;;;;3.47;2.90;;;18.10;68.10;;;;;;5004625;28;20508;-50
2023/10/07 04:26:10;;;;;;;3.67;2.50;;;18.10;68.00;;;;;;5006069;28;20509;-51
2023/10/07 04:28:40;;;;;;;3.07;2.27;;;18.10;68.10;;;;;;5008023;28;20480;-50
2023/10/07 04:31:10;;;;;;;4.50;3.00;;;18.10;68.10;;;;;;5003451;28;20472;-52
2023/10/07 04:33:47;;;;;;;5.30;3.07;;;18.10;68.10;;;;;;4994982;28;20464;-52
2023/10/07 04:36:31;;;;;;;5.40;2.60;;;18.10;68.20;;;;;;5002846;28;20449;-53
2023/10/07 04:39:16;;;;;;;7.73;3.60;;;18.10;68.50;;;;;;5004434;28;21028;-49
2023/10/07 04:41:43;;;;;;;5.07;2.63;;;18.10;68.50;;;;;;5012123;28;20444;-51
2023/10/07 04:44:27;;;;;;;3.17;2.57;;;18.10;68.60;;;;;;5005371;28;20564;-51
2023/10/07 04:46:57;;;;;;;3.43;2.50;;;18.10;68.50;;;;;;5007687;28;20432;-51
2023/10/07 04:49:37;;;;;;;3.03;2.10;;;18.10;68.50;;;;;;5005584;28;20574;-51
2023/10/07 04:52:09;;;;;;;4.87;2.87;;;18.10;68.50;;;;;;5001698;28;20453;-51
2023/10/07 04:54:36;;;;;;;4.67;2.90;;;18.10;68.60;;;;;;5005166;28;20465;-51
2023/10/07 04:57:10;;;;;;;5.07;2.70;;;18.10;68.30;;;;;;5005449;28;20441;-51
2023/10/07 04:59:45;;;;;;;2.80;2.07;;;18.10;68.60;;;;;;5004868;28;20500;-52
2023/10/07 05:02:15;;;;;;;4.73;2.90;;;18.10;68.50;;;;;;5005976;28;20539;-50
2023/10/07 05:04:50;;;;;;;3.87;2.80;;;18.10;68.50;;;;;;5011532;28;20493;-49
2023/10/07 05:07:24;;;;;;;4.33;2.50;;;18.00;68.60;;;;;;5011286;28;20456;-51
2023/10/07 05:09:53;;;;;;;4.23;2.87;;;18.10;68.70;;;;;;5006409;28;20521;-57
2023/10/07 05:12:20;;;;;;;3.90;2.80;;;18.10;68.70;;;;;;5011480;28;20776;-50
2023/10/07 05:14:50;;;;;;;7.03;2.73;;;18.00;68.70;;;;;;5005584;28;20473;-50
2023/10/07 05:17:17;;;;;;;4.23;3.13;;;18.10;68.80;;;;;;4995885;28;21007;-51
2023/10/07 05:19:46;;;;;;;4.07;2.50;;;18.00;68.90;;;;;;5009114;28;20472;-52
2023/10/07 05:22:18;;;;;;;3.33;2.60;;;18.00;68.70;;;;;;5006657;28;20932;-51
2023/10/07 05:24:51;;;;;;;5.57;2.73;;;18.10;68.90;;;;;;5008203;28;20535;-52
2023/10/07 05:27:19;;;;;;;4.50;2.93;;;18.00;68.90;;;;;;5005993;28;20435;-53
2023/10/07 05:29:48;;;;;;;4.07;3.10;;;18.00;68.90;;;;;;5008157;28;20562;-51
2023/10/07 05:32:18;;;;;;;3.73;2.50;;;18.00;68.90;;;;;;5006924;28;20858;-52
2023/10/07 05:34:47;;;;;;;4.97;2.20;;;18.00;68.80;;;;;;5008149;28;20500;-51
2023/10/07 05:37:15;;;;;;;2.30;1.90;;;18.00;69.00;;;;;;5005984;28;20448;-53
2023/10/07 05:39:44;;;;;;;3.60;2.50;;;18.00;68.90;;;;;;5007935;28;20883;-51
2023/10/07 05:42:12;;;;;;;3.40;2.40;;;18.00;69.10;;;;;;5006845;28;20521;-50
2023/10/07 05:44:41;;;;;;;3.90;2.50;;;18.00;69.10;;;;;;5008168;28;20500;-53
2023/10/07 05:47:09;;;;;;;3.40;2.23;;;18.00;69.30;;;;;;5010434;28;20418;-51
2023/10/07 05:49:41;;;;;;;4.23;2.50;;;18.00;69.30;;;;;;5008077;28;20494;-50
2023/10/07 05:52:09;;;;;;;3.77;2.70;;;18.00;69.30;;;;;;5005564;28;20440;-51
2023/10/07 05:54:38;;;;;;;4.60;2.80;;;18.00;69.00;;;;;;5006272;28;20476;-53
2023/10/07 05:57:07;;;;;;;3.87;2.33;;;18.00;69.40;;;;;;5007878;28;20421;-54
2023/10/07 05:59:35;;;;;;;4.00;2.90;;;18.00;69.40;;;;;;5005797;28;20853;-50
2023/10/07 06:02:10;;;;;;;4.63;3.10;;;18.00;69.10;;;;;;5008134;28;20448;-51
2023/10/07 06:04:44;;;;;;;3.67;2.60;;;18.00;69.40;;;;;;5008437;28;20855;-52
2023/10/07 06:07:14;;;;;;;2.93;2.40;;;18.00;69.10;;;;;;5007880;28;20528;-52
2023/10/07 06:09:43;;;;;;;2.97;2.53;;;18.00;69.30;;;;;;5006779;28;20523;-51
2023/10/07 06:12:11;;;;;;;2.83;2.13;;;18.00;69.40;;;;;;5013880;28;20423;-51
2023/10/07 06:14:40;;;;;;;3.63;2.47;;;18.00;69.50;;;;;;5005467;28;20579;-51
2023/10/07 06:17:11;;;;;;;2.27;1.90;;;17.90;69.40;;;;;;5007556;28;20439;-51
2023/10/07 06:19:40;;;;;;;3.23;2.50;;;17.90;69.30;;;;;;5013870;28;20465;-52
2023/10/07 06:22:12;;;;;;;4.20;2.47;;;18.00;69.30;;;;;;5005558;28;20480;-51
2023/10/07 06:24:42;;;;;;;2.70;2.00;;;18.00;69.40;;;;;;5006526;28;20487;-52
2023/10/07 06:27:13;;;;;;;4.00;2.50;;;18.00;69.20;;;;;;5007077;28;20433;-51
2023/10/07 06:29:43;;;;;;;2.93;2.17;;;18.00;69.30;;;;;;5008906;28;20575;-50
2023/10/07 06:32:23;;;;;;;3.50;2.67;;;18.00;69.20;;;;;;5007931;28;20421;-50
2023/10/07 06:34:54;;;;;;;2.80;2.30;;;18.00;69.20;;;;;;5006722;28;20722;-51
2023/10/07 06:37:28;;;;;;;4.13;2.80;;;17.90;69.60;;;;;;5007565;28;20536;-48
2023/10/07 06:40:00;;;;;;;3.50;2.73;;;17.90;69.40;;;;;;5003748;28;20469;-51
2023/10/07 06:42:29;;;;;;;4.57;2.87;;;17.90;69.60;;;;;;5010086;28;20468;-53
2023/10/07 06:45:06;;;;;;;5.60;2.60;;;17.90;69.70;;;;;;5006773;28;20547;-52
2023/10/07 06:47:34;;;;;;;3.80;2.77;;;17.90;69.80;;;;;;5005491;28;20444;-52
2023/10/07 06:50:03;;;;;;;5.97;2.77;;;18.00;69.80;;;;;;5006598;28;20515;-50
2023/10/07 06:52:34;;;;;;;4.67;2.90;;;17.90;70.10;;;;;;5003420;28;20949;-51
2023/10/07 06:55:03;;;;;;;3.37;2.40;;;17.90;69.70;;;;;;5007156;28;20584;-52
2023/10/07 06:57:42;;;;;;;3.90;2.30;;;17.90;69.80;;;;;;5005253;28;20440;-52
2023/10/07 07:00:22;;;;;;;3.50;2.83;;;17.90;69.90;;;;;;5006574;28;20854;-51
2023/10/07 07:02:57;;;;;;;3.23;2.67;;;17.90;70.00;;;;;;5007583;28;20429;-51
2023/10/07 07:05:28;;;;;;;3.97;2.57;;;17.90;69.70;;;;;;5005838;28;20846;-51
2023/10/07 07:08:03;;;;;;;4.30;2.50;;;17.90;69.90;;;;;;5004226;28;20873;-51
2023/10/07 07:10:32;;;;;;;4.10;2.30;;;17.90;70.00;;;;;;5010762;28;21016;-51
2023/10/07 07:13:05;;;;;;;6.22;3.35;;;17.90;70.10;;;;;;5014080;28;20798;-53
2023/10/07 07:15:37;;;;;;;4.20;2.70;;;17.90;70.10;;;;;;5008273;28;20238;-51
2023/10/07 07:18:14;;;;;;;4.07;2.63;;;17.90;70.20;;;;;;5017129;28;21000;-50
2023/10/07 07:21:13;;;;;;;3.43;2.83;;;17.90;70.20;;;;;;5003933;28;20464;-52
2023/10/07 07:23:45;;;;;;;5.77;2.60;;;17.90;70.40;;;;;;5003224;28;20476;-51
2023/10/07 07:26:18;;;;;;;3.83;2.83;;;17.90;70.50;;;;;;5006271;28;20443;-51
2023/10/07 07:28:47;;;;;;;3.47;2.87;;;17.90;70.10;;;;;;5005336;28;20468;-52
2023/10/07 07:31:25;;;;;;;4.53;2.90;;;17.90;70.40;;;;;;5009208;28;20468;-51
2023/10/07 07:33:56;;;;;;;6.00;3.33;;;17.90;70.20;;;;;;5010095;28;20923;-51
2023/10/07 07:36:37;;;;;;;3.97;2.97;;;17.90;70.20;;;;;;5003877;28;21183;-51
2023/10/07 07:39:09;;;;;;;2.77;2.20;;;17.90;70.60;;;;;;4990989;28;20515;-51
2023/10/07 07:41:55;;;;;;;2.90;2.37;;;17.90;70.50;;;;;;5003996;28;20437;-51
2023/10/07 07:44:33;;;;;;;4.30;2.57;;;17.90;70.00;;;;;;5002834;28;20493;-51
2023/10/07 07:47:02;;;;;;;4.03;2.47;;;17.90;70.20;;;;;;5005902;28;20487;-52
2023/10/07 07:49:32;;;;;;;3.30;2.90;;;17.90;70.30;;;;;;5007232;28;20472;-51
2023/10/07 07:52:01;;;;;;;3.37;2.30;;;17.90;70.20;;;;;;5004419;28;21012;-55
2023/10/07 07:54:31;;;;;;;3.50;3.20;;;17.90;70.40;;;;;;5004149;28;20467;-51
2023/10/07 07:57:04;;;;;;;3.50;2.90;;;17.90;70.20;;;;;;5006361;28;20448;-52
2023/10/07 07:59:33;;;;;;;3.73;2.40;;;17.90;70.40;;;;;;5005780;28;20469;-51
2023/10/07 08:02:12;;;;;;;4.37;2.83;;;17.90;70.40;;;;;;5009956;28;20888;-52
2023/10/07 08:04:46;;;;;;;4.77;2.87;;;17.90;70.50;;;;;;5003433;28;21029;-51
2023/10/07 08:07:24;;;;;;;3.63;2.43;;;17.90;70.00;;;;;;5002684;28;20444;-51
2023/10/07 08:09:57;;;;;;;3.40;2.40;;;17.90;70.30;;;;;;5011983;28;20483;-51
2023/10/07 08:12:30;;;;;;;3.53;2.40;;;17.90;70.40;;;;;;5005939;28;20855;-51
2023/10/07 08:14:59;;;;;;;4.50;3.00;;;17.90;70.30;;;;;;5004962;28;20480;-51
2023/10/07 08:17:28;;;;;;;2.80;2.20;;;17.90;70.60;;;;;;5006062;28;20433;-51
2023/10/07 08:19:57;;;;;;;4.33;2.50;;;17.90;70.30;;;;;;4994635;28;21212;-51
2023/10/07 08:22:27;;;;;;;7.20;3.30;;;17.90;70.20;;;;;;4999903;28;20820;-50
2023/10/07 08:25:00;;;;;;;4.73;3.30;;;17.90;75.80;;;;;;5002459;28;20483;-51
2023/10/07 08:27:44;;;;;;;5.40;3.30;;;17.90;74.90;;;;;;5006792;28;20472;-51
2023/10/07 08:30:28;;;;;;;6.40;2.80;;;17.90;75.30;;;;;;5000476;28;21013;-51
2023/10/07 08:32:56;;;;;;;5.17;2.93;;;17.90;74.50;;;;;;5002866;28;20519;-51
2023/10/07 08:35:26;;;;;;;4.93;2.47;;;17.90;74.20;;;;;;5003413;28;20486;-50
2023/10/07 08:37:54;;;;;;;6.33;2.83;;;17.90;73.30;;;;;;5000148;28;20440;-52
2023/10/07 08:40:28;;;;;;;3.90;2.90;;;18.00;73.20;;;;;;4996406;28;21161;-51
2023/10/07 08:42:59;;;;;;;5.67;3.00;;;18.00;73.20;;;;;;5013952;28;20971;-52
2023/10/07 08:45:28;;;;;;;10.17;3.90;;;18.00;73.20;;;;;;5008344;28;20484;-52
2023/10/07 08:48:08;;;;;;;6.07;2.57;;;18.00;73.30;;;;;;5014409;28;20572;-51
2023/10/07 08:50:43;;;;;;;3.23;2.20;;;18.00;72.60;;;;;;5004747;28;20480;-50
2023/10/07 08:53:15;;;;;;;5.03;2.67;;;18.00;73.00;;;;;;5005317;28;20460;-53
2023/10/07 08:55:46;;;;;;;5.43;3.63;;;18.00;72.50;;;;;;5013696;28;20443;-50
2023/10/07 08:58:16;;;;;;;7.03;2.93;;;18.00;72.70;;;;;;5006514;28;20495;-52
2023/10/07 09:00:50;;;;;;;5.87;3.23;;;18.00;72.40;;;;;;5007276;28;21016;-51
2023/10/07 09:03:19;;;;;;;4.67;2.60;;;18.00;72.20;;;;;;5010663;28;22829;-51
2023/10/07 09:05:48;;;;;;;4.03;2.70;;;18.10;72.10;;;;;;5007968;28;20962;-51
2023/10/07 09:08:16;;;;;;;3.50;2.30;;;18.00;71.90;;;;;;5007294;28;20459;-51
2023/10/07 09:10:47;;;;;;;5.00;2.90;;;18.00;71.50;;;;;;5009806;28;20461;-51
2023/10/07 09:13:26;;;;;;;3.00;2.57;;;18.10;71.50;;;;;;5008196;28;20816;-51
2023/10/07 09:15:59;;;;;;;2.50;2.17;;;18.10;71.00;;;;;;4988171;28;20842;-51
2023/10/07 09:18:31;;;;;;;6.40;2.40;;;18.10;70.70;;;;;;5008357;28;20426;-50
2023/10/07 09:21:06;;;;;;;4.17;2.50;;;18.10;70.50;;;;;;5006237;28;20437;-51
2023/10/07 09:23:43;;;;;;;3.00;2.50;;;18.10;70.40;;;;;;5007013;28;20547;-52
2023/10/07 09:26:21;;;;;;;5.17;3.03;;;18.10;70.40;;;;;;5006987;28;20803;-51
2023/10/07 09:28:58;;;;;;;3.70;2.57;;;18.10;70.50;;;;;;5010040;28;20807;-50
2023/10/07 09:31:27;;;;;;;3.30;2.47;;;18.10;70.50;;;;;;5002271;28;20464;-50
2023/10/07 09:34:09;;;;;;;4.77;3.53;;;18.10;70.30;;;;;;5006002;28;20481;-48
2023/10/07 09:36:40;;;;;;;6.23;2.87;;;18.20;74.00;;;;;;5004909;28;20453;-51
2023/10/07 09:39:31;;;;;;;10.50;3.50;;;18.30;71.30;;;;;;5012599;28;20679;-50
2023/10/07 09:42:04;;;;;;;3.77;3.10;;;18.30;71.00;;;;;;4997009;28;20811;-50
2023/10/07 09:44:37;;;;;;;4.73;2.43;;;18.30;71.00;;;;;;5009026;28;20840;-50
2023/10/07 09:47:20;;;;;;;9.23;2.73;;;18.20;70.80;;;;;;5005805;28;20568;-51
2023/10/07 09:49:50;;;;;;;4.20;2.77;;;18.20;70.90;;;;;;5009937;28;20477;-51
2023/10/07 09:52:29;;;;;;;5.73;3.40;;;18.30;70.60;;;;;;5006766;28;20900;-49
2023/10/07 09:55:23;;;;;;;6.60;3.17;;;18.20;70.40;;;;;;5012064;28;20486;-52
2023/10/07 09:58:01;;;;;;;6.43;3.37;;;18.20;70.50;;;;;;5007666;28;20439;-51
2023/10/07 10:00:40;;;;;;;8.00;3.43;;;18.20;70.30;;;;;;5005106;28;20476;-51
2023/10/07 10:03:44;;;;;;;7.90;3.10;;;18.20;70.40;;;;;;5011883;28;20428;-51
2023/10/07 10:06:33;;;;;;;2.43;2.23;;;18.20;70.20;;;;;;4986445;28;20546;-50
2023/10/07 10:09:09;;;;;;;4.83;2.70;;;18.20;70.00;;;;;;5006290;28;20484;-51
2023/10/07 10:11:47;;;;;;;4.63;2.37;;;18.20;70.00;;;;;;5007131;28;20444;-50
2023/10/07 10:14:26;;;;;;;4.77;2.20;;;18.20;70.00;;;;;;5006526;28;21020;-52
2023/10/07 10:16:54;;;;;;;3.60;2.73;;;18.30;69.90;;;;;;4993318;28;20468;-51
2023/10/07 10:19:28;;;;;;;4.23;2.53;;;18.30;69.80;;;;;;5007198;28;20985;-50
2023/10/07 10:22:10;;;;;;;3.40;1.80;;;18.30;69.90;;;;;;5006486;28;20535;-52
2023/10/07 10:24:42;;;;;;;5.17;2.60;;;18.30;69.80;;;;;;5007329;28;20524;-50
2023/10/07 10:27:13;;;;;;;3.57;2.30;;;18.30;69.70;;;;;;5007929;28;20432;-51
2023/10/07 10:29:55;;;;;;;4.70;2.40;;;18.30;69.70;;;;;;5009824;28;20464;-51
2023/10/07 10:32:28;;;;;;;3.17;2.20;;;18.30;69.60;;;;;;5008465;28;20996;-51
2023/10/07 10:35:00;;;;;;;5.00;2.30;;;18.30;69.70;;;;;;5004976;28;20472;-51
2023/10/07 10:37:30;;;;;;;2.20;2.00;;;18.30;69.50;;;;;;5006663;28;20445;-52
2023/10/07 10:40:05;;;;;;;4.23;2.13;;;18.30;69.50;;;;;;5005352;28;21140;-51
2023/10/07 10:42:41;;;;;;;3.93;2.20;;;18.30;69.50;;;;;;5005004;28;20472;-52
2023/10/07 10:45:18;;;;;;;3.93;2.33;;;18.30;69.50;;;;;;5005295;28;20477;-51
2023/10/07 10:47:50;;;;;;;4.43;2.43;;;18.30;69.40;;;;;;5004976;28;20444;-50
2023/10/07 10:50:19;;;;;;;3.87;2.03;;;18.30;69.40;;;;;;4998660;28;20493;-51
2023/10/07 10:52:49;;;;;;;2.60;2.27;;;18.40;69.70;;;;;;5003099;28;20487;-52
2023/10/07 10:55:18;;;;;;;5.33;2.10;;;18.40;69.70;;;;;;5008068;28;20483;-51
2023/10/07 10:57:46;;;;;;;4.30;2.27;;;18.40;69.80;;;;;;5006205;28;21533;-51
2023/10/07 11:00:21;;;;;;;4.47;2.20;;;18.30;69.90;;;;;;4999951;28;20473;-52
2023/10/07 11:02:51;;;;;;;2.93;2.33;;;18.30;69.90;;;;;;5006208;28;21146;-51
2023/10/07 11:05:21;;;;;;;3.53;2.43;;;18.30;70.00;;;;;;4994529;28;21265;-49
2023/10/07 11:07:51;;;;;;;3.40;2.43;;;18.30;70.00;;;;;;4999762;28;20744;-50
2023/10/07 11:10:22;;;;;;;3.87;2.73;;;18.30;70.00;;;;;;5000854;28;22751;-51
2023/10/07 11:12:52;;;;;;;4.07;2.03;;;18.20;70.00;;;;;;5000680;28;20527;-52
2023/10/07 11:15:27;;;;;;;2.63;2.00;;;18.20;70.00;;;;;;4984865;28;20866;-51
2023/10/07 11:17:57;;;;;;;3.80;2.60;;;18.20;69.90;;;;;;5003218;28;20807;-49
2023/10/07 11:20:33;;;;;;;3.07;2.10;;;18.20;70.00;;;;;;5002278;28;20859;-47
2023/10/07 11:23:02;;;;;;;2.90;2.20;;;18.20;70.00;;;;;;4997420;28;20455;-51
2023/10/07 11:25:33;;;;;;;5.03;2.50;;;18.30;70.10;;;;;;5007118;28;20483;-52
2023/10/07 11:28:09;;;;;;;4.20;2.63;;;18.30;70.00;;;;;;5011517;28;20447;-51
2023/10/07 11:30:45;;;;;;;4.17;2.20;;;18.20;70.10;;;;;;5002989;28;20660;-51
2023/10/07 11:33:16;;;;;;;2.87;2.10;;;18.30;70.20;;;;;;5006624;28;20459;-52
2023/10/07 11:35:57;;;;;;;6.20;2.40;;;18.30;70.10;;;;;;5008703;28;20461;-53
2023/10/07 11:38:26;;;;;;;3.40;2.20;;;18.30;70.00;;;;;;5005880;28;20456;-53
2023/10/07 11:40:55;;;;;;;6.77;2.53;;;18.30;70.20;;;;;;5006632;28;21349;-52
2023/10/07 11:43:24;;;;;;;6.30;2.80;;;18.20;70.40;;;;;;5011990;28;20457;-49
2023/10/07 11:45:54;;;;;;;4.40;2.37;;;18.20;70.10;;;;;;5004399;28;21524;-50
2023/10/07 11:48:24;;;;;;;3.67;2.80;;;18.20;70.20;;;;;;5004112;28;21006;-51
2023/10/07 11:50:54;;;;;;;2.97;2.00;;;18.20;70.40;;;;;;5002489;28;20460;-51
2023/10/07 11:53:22;;;;;;;2.70;1.87;;;18.20;70.40;;;;;;5005504;28;20508;-50
2023/10/07 11:55:51;;;;;;;3.37;1.77;;;18.20;70.30;;;;;;5006555;28;20513;-52
2023/10/07 11:58:20;;;;;;;3.87;2.13;;;18.20;70.20;;;;;;5007623;28;20520;-50
2023/10/07 12:00:48;;;;;;;5.50;2.50;;;18.20;70.20;;;;;;5003391;28;21000;-51
2023/10/07 12:03:17;;;;;;;3.63;1.90;;;18.20;70.40;;;;;;5009638;28;20437;-51
2023/10/07 12:05:46;;;;;;;2.73;2.20;;;18.20;70.60;;;;;;5003750;28;20475;-51
2023/10/07 12:08:14;;;;;;;3.43;1.87;;;18.20;70.40;;;;;;5005984;28;20432;-51
2023/10/07 12:10:43;;;;;;;2.33;2.10;;;18.20;70.40;;;;;;5011462;28;20557;-50
2023/10/07 12:13:14;;;;;;;3.80;2.20;;;18.20;70.50;;;;;;5013259;28;20492;-51
2023/10/07 12:15:43;;;;;;;3.00;2.37;;;18.20;70.40;;;;;;5011051;28;20866;-50
2023/10/07 12:18:33;;;;;;;2.20;1.80;;;18.20;70.50;;;;;;4966893;28;20523;-51
2023/10/07 12:21:04;;;;;;;3.00;2.17;;;18.20;70.50;;;;;;4963694;28;20550;-50
2023/10/07 12:23:33;;;;;;;3.47;1.73;;;18.20;70.50;;;;;;4967119;28;20574;-50
2023/10/07 12:26:02;;;;;;;2.67;1.77;;;18.20;70.50;;;;;;4969633;28;20431;-52
2023/10/07 12:28:31;;;;;;;2.93;2.30;;;18.30;70.60;;;;;;4966955;28;20434;-50
2023/10/07 12:31:01;;;;;;;2.73;1.87;;;18.20;70.50;;;;;;4964647;28;20504;-51
2023/10/07 12:33:29;;;;;;;2.70;2.27;;;18.20;70.70;;;;;;4962806;28;20474;-50
2023/10/07 12:36:11;;;;;;;4.97;2.97;;;18.20;70.90;;;;;;4969551;28;21591;-51
2023/10/07 12:38:40;;;;;;;3.43;1.80;;;18.20;70.70;;;;;;5011093;28;20436;-54
2023/10/07 12:41:09;;;;;;;3.40;2.20;;;18.20;72.00;;;;;;5011106;28;20428;-52
2023/10/07 12:43:38;;;;;;;3.20;2.20;;;18.20;70.70;;;;;;5010356;28;20451;-52
2023/10/07 12:46:09;;;;;;;3.83;1.70;;;18.20;70.70;;;;;;5011360;28;20444;-52
2023/10/07 12:48:40;;;;;;;4.27;2.33;;;18.20;70.60;;;;;;5010313;28;20772;-51
2023/10/07 12:51:10;;;;;;;2.60;1.73;;;18.20;70.70;;;;;;5006856;28;20807;-49
2023/10/07 12:53:40;;;;;;;4.50;2.63;;;18.20;70.70;;;;;;5009963;28;20464;-52
2023/10/07 12:56:13;;;;;;;3.83;2.50;;;18.20;70.60;;;;;;5013438;28;20850;-51
2023/10/07 12:58:42;;;;;;;2.90;2.30;;;18.20;70.70;;;;;;5009995;28;21495;-51
2023/10/07 13:01:12;;;;;;;3.57;2.37;;;18.30;70.90;;;;;;5005337;28;20820;-52
2023/10/07 13:03:43;;;;;;;3.40;2.10;;;18.30;70.90;;;;;;5004406;28;20468;-52
2023/10/07 13:06:14;;;;;;;3.30;2.27;;;18.30;71.00;;;;;;5007246;28;20479;-50
2023/10/07 13:08:44;;;;;;;3.40;2.30;;;18.30;70.80;;;;;;5010250;28;20452;-50
2023/10/07 13:11:14;;;;;;;3.47;2.50;;;18.20;70.80;;;;;;5005732;28;20474;-52
2023/10/07 13:13:45;;;;;;;4.90;2.50;;;18.30;71.20;;;;;;5008304;28;21075;-52
2023/10/07 13:16:15;;;;;;;3.53;2.27;;;18.30;71.00;;;;;;5009471;28;20440;-51
2023/10/07 13:18:45;;;;;;;3.07;2.60;;;18.30;71.00;;;;;;5004616;28;20457;-50
2023/10/07 13:21:18;;;;;;;5.00;2.10;;;18.30;70.90;;;;;;5002610;28;20951;-52
2023/10/07 13:23:49;;;;;;;3.97;2.40;;;18.30;71.00;;;;;;5006437;28;20886;-52
2023/10/07 13:26:18;;;;;;;3.07;1.90;;;18.30;71.00;;;;;;5011800;28;20436;-50